createdAt,value
2022-09-30T00:03:37.617Z,93.11
2022-09-30T00:05:34.821Z,93.30
2022-09-30T00:06:38.834Z,93.16
2022-09-30T00:09:22.690Z,92.77
2022-09-30T00:17:47.409Z,94.19
2022-09-30T00:31:33.907Z,93.28
2022-09-30T00:33:00.868Z,92.76
2022-09-30T02:04:33.307Z,96.37
2022-09-30T02:08:51.999Z,96.47
2022-09-30T02:17:35.851Z,96.07
2022-09-30T02:20:36.145Z,96.33
2022-09-30T02:29:19.371Z,96.48
2022-09-30T02:31:14.590Z,96.19
2022-09-30T02:33:16.910Z,96.66
2022-09-30T02:49:13.955Z,96.55
2022-09-30T02:51:34.427Z,96.59
2022-09-30T02:57:55.679Z,96.52
2022-09-30T02:59:29.287Z,96.92
2022-09-30T03:00:53.891Z,96.67
2022-09-30T03:08:21.708Z,97.09
2022-09-30T03:27:54.953Z,97.23
2022-09-30T03:29:08.224Z,97.22
2022-09-30T03:30:27.177Z,96.97
2022-09-30T04:02:06.208Z,97.73
2022-09-30T04:31:12.231Z,97.87
2022-09-30T04:32:17.439Z,97.68
2022-09-30T04:33:21.846Z,97.58
2022-09-30T04:34:29.209Z,97.72
2022-09-30T04:35:32.970Z,97.63
2022-09-30T04:36:39.113Z,97.50
2022-09-30T04:37:43.937Z,97.76
2022-09-30T04:38:48.498Z,97.37
2022-09-30T04:39:51.999Z,97.56
2022-09-30T04:40:57.332Z,97.67
2022-09-30T04:42:01.199Z,97.89
2022-09-30T04:43:13.267Z,97.74
2022-09-30T04:44:20.186Z,97.65
2022-09-30T04:45:59.811Z,97.31
2022-09-30T04:47:03.338Z,97.46
2022-09-30T04:48:07.979Z,97.41
2022-09-30T04:49:12.442Z,97.52
2022-09-30T04:50:15.912Z,97.44
2022-09-30T04:51:21.242Z,97.46
2022-09-30T04:52:38.607Z,97.25
2022-09-30T04:53:42.618Z,97.39
2022-09-30T04:54:47.390Z,96.95
2022-09-30T04:55:51.147Z,97.48
2022-09-30T04:57:16.028Z,97.49
2022-09-30T04:58:19.229Z,97.34
2022-09-30T04:59:23.799Z,97.56
2022-09-30T05:00:28.304Z,97.83
2022-09-30T05:01:33.678Z,97.74
2022-09-30T05:02:37.040Z,97.69
2022-09-30T05:03:42.114Z,98.06
2022-09-30T05:04:45.972Z,98.14
2022-09-30T05:05:50.334Z,97.98
2022-09-30T05:06:54.605Z,97.66
2022-09-30T05:08:02.340Z,98.19
2022-09-30T05:09:06.975Z,98.03
2022-09-30T05:10:11.523Z,98.11
2022-09-30T05:11:19.851Z,98.53
2022-09-30T05:12:48.199Z,98.22
2022-09-30T05:13:52.507Z,98.11
2022-09-30T05:14:57.097Z,98.19
2022-09-30T05:16:00.726Z,98.63
2022-09-30T05:17:05.210Z,98.40
2022-09-30T05:18:10.242Z,98.41
2022-09-30T05:19:15.184Z,98.78
2022-09-30T05:20:21.286Z,98.73
2022-09-30T05:21:24.658Z,98.79
2022-09-30T05:22:29.629Z,98.78
2022-09-30T05:23:34.576Z,98.91
2022-09-30T05:24:38.942Z,98.62
2022-09-30T05:25:42.039Z,98.93
2022-09-30T05:26:46.312Z,98.77
2022-09-30T05:27:50.006Z,98.57
2022-09-30T05:29:04.737Z,98.74
2022-09-30T05:30:09.515Z,98.67
2022-09-30T05:31:14.464Z,98.68
2022-09-30T05:32:20.230Z,98.35
2022-09-30T05:33:24.550Z,98.58
2022-09-30T05:34:27.880Z,98.51
2022-09-30T05:35:32.527Z,98.49
2022-09-30T05:36:36.593Z,98.62
2022-09-30T05:37:41.149Z,98.78
2022-09-30T05:38:47.009Z,98.43
2022-09-30T05:39:50.732Z,98.77
2022-09-30T05:40:55.215Z,98.52
2022-09-30T05:41:58.911Z,98.81
2022-09-30T05:43:03.625Z,98.93
2022-09-30T05:44:09.144Z,98.39
2022-09-30T05:45:14.019Z,98.68
2022-09-30T05:46:18.926Z,98.35
2022-09-30T05:47:24.278Z,98.55
2022-09-30T05:48:28.129Z,98.54
2022-09-30T05:49:35.166Z,98.78
2022-09-30T05:50:39.597Z,98.87
2022-09-30T05:51:44.387Z,98.90
2022-09-30T05:52:51.039Z,98.48
2022-09-30T05:54:06.275Z,98.77
2022-09-30T05:55:12.130Z,98.54
2022-09-30T05:56:16.477Z,98.48
2022-09-30T05:57:19.968Z,98.09
2022-09-30T05:58:24.836Z,98.69
2022-09-30T05:59:32.147Z,98.54
2022-09-30T06:00:35.272Z,98.41
2022-09-30T06:01:39.483Z,98.32
2022-09-30T06:02:42.978Z,98.01
2022-09-30T06:03:48.338Z,98.71
2022-09-30T06:04:51.829Z,98.43
2022-09-30T06:05:58.390Z,98.53
2022-09-30T06:07:01.650Z,98.07
2022-09-30T06:08:07.393Z,98.31
2022-09-30T06:09:13.243Z,98.55
2022-09-30T06:10:16.864Z,98.06
2022-09-30T06:11:23.780Z,98.38
2022-09-30T06:12:29.044Z,98.46
2022-09-30T06:13:36.431Z,97.90
2022-09-30T06:14:40.829Z,98.70
2022-09-30T06:15:44.206Z,98.19
2022-09-30T06:16:52.879Z,98.29
2022-09-30T06:17:56.568Z,98.18
2022-09-30T06:19:01.327Z,97.93
2022-09-30T06:20:06.127Z,98.43
2022-09-30T06:21:13.966Z,98.27
2022-09-30T06:22:17.282Z,98.18
2022-09-30T06:23:21.809Z,98.16
2022-09-30T06:24:26.758Z,98.47
2022-09-30T06:25:31.826Z,98.31
2022-09-30T06:26:35.019Z,98.19
2022-09-30T06:27:39.728Z,98.60
2022-09-30T06:28:45.567Z,98.86
2022-09-30T06:29:49.566Z,98.72
2022-09-30T06:30:53.927Z,97.86
2022-09-30T06:31:58.587Z,98.10
2022-09-30T06:33:01.788Z,97.78
2022-09-30T06:34:06.868Z,97.87
2022-09-30T06:35:10.678Z,98.21
2022-09-30T06:36:15.421Z,98.15
2022-09-30T06:37:19.069Z,98.09
2022-09-30T06:38:24.088Z,98.18
2022-09-30T06:39:29.861Z,98.20
2022-09-30T06:40:33.068Z,98.19
2022-09-30T06:41:43.795Z,98.48
2022-09-30T06:42:59.596Z,97.57
2022-09-30T06:44:05.234Z,97.64
2022-09-30T06:45:12.503Z,97.56
2022-09-30T06:46:30.363Z,97.15
2022-09-30T06:47:35.284Z,97.55
2022-09-30T06:48:40.808Z,97.38
2022-09-30T06:49:49.670Z,97.75
2022-09-30T06:51:22.378Z,97.52
2022-09-30T06:52:27.293Z,97.22
2022-09-30T06:53:30.948Z,97.26
2022-09-30T06:54:36.616Z,97.81
2022-09-30T06:55:40.628Z,98.05
2022-09-30T06:56:45.944Z,96.99
2022-09-30T06:57:49.947Z,96.95
2022-09-30T06:58:58.339Z,97.09
2022-09-30T07:00:14.625Z,97.56
2022-09-30T07:01:21.153Z,97.76
2022-09-30T07:05:17.624Z,97.73
2022-09-30T07:06:20.550Z,97.29
2022-09-30T07:07:25.548Z,97.83
2022-09-30T07:08:33.913Z,97.16
2022-09-30T07:09:40.786Z,97.21
2022-09-30T07:11:14.958Z,97.49
2022-09-30T07:12:23.043Z,97.27
2022-09-30T07:13:27.860Z,97.18
2022-09-30T07:14:40.883Z,97.92
2022-09-30T07:16:44.916Z,97.94
2022-09-30T07:18:03.817Z,97.92
2022-09-30T07:19:31.068Z,97.73
2022-09-30T07:20:37.790Z,97.00
2022-09-30T07:21:42.452Z,96.92
2022-09-30T07:23:20.457Z,97.18
2022-09-30T07:26:02.072Z,97.30
2022-09-30T07:27:21.853Z,96.77
2022-09-30T07:28:33.449Z,97.31
2022-09-30T07:31:35.584Z,96.97
2022-09-30T07:32:58.922Z,97.11
2022-09-30T07:34:04.665Z,97.36
2022-09-30T07:35:12.759Z,96.73
2022-09-30T07:36:18.865Z,96.84
2022-09-30T07:37:25.378Z,96.98
2022-09-30T07:38:42.250Z,96.81
2022-09-30T07:39:55.735Z,96.79
2022-09-30T07:41:04.269Z,97.08
2022-09-30T07:42:24.434Z,97.25
2022-09-30T07:43:59.225Z,97.46
2022-09-30T07:45:11.393Z,96.81
2022-09-30T07:46:47.328Z,97.37
2022-09-30T07:50:31.399Z,96.94
2022-09-30T07:51:40.580Z,97.48
2022-09-30T07:52:44.395Z,97.63
2022-09-30T07:53:54.268Z,97.38
2022-09-30T07:55:02.921Z,97.92
2022-09-30T07:56:09.471Z,97.67
2022-09-30T07:57:14.320Z,98.00
2022-09-30T07:58:21.275Z,97.91
2022-09-30T07:59:30.590Z,98.41
2022-09-30T08:00:42.537Z,98.18
2022-09-30T08:01:48.593Z,98.15
2022-09-30T08:02:53.615Z,98.92
2022-09-30T08:04:00.971Z,98.30
2022-09-30T08:05:22.380Z,98.54
2022-09-30T08:06:26.373Z,98.23
2022-09-30T08:07:31.361Z,98.14
2022-09-30T08:08:35.554Z,97.66
2022-09-30T08:11:00.942Z,97.90
2022-09-30T08:12:14.487Z,97.49
2022-09-30T08:13:18.381Z,98.40
2022-09-30T08:14:29.957Z,97.81
2022-09-30T08:15:33.670Z,98.42
2022-09-30T08:17:03.014Z,98.26
2022-09-30T08:18:07.218Z,97.51
2022-09-30T08:19:16.344Z,97.28
2022-09-30T08:20:25.320Z,97.49
2022-09-30T08:22:24.258Z,97.09
2022-09-30T08:23:33.699Z,97.54
2022-09-30T08:24:41.458Z,97.83
2022-09-30T08:25:45.996Z,96.81
2022-09-30T08:26:58.104Z,97.23
2022-09-30T08:28:03.692Z,96.65
2022-09-30T08:29:09.103Z,97.30
2022-09-30T08:30:13.649Z,96.85
2022-09-30T08:31:19.945Z,97.11
2022-09-30T08:34:11.267Z,97.48
2022-09-30T08:35:15.061Z,97.14
2022-09-30T08:37:09.514Z,97.46
2022-09-30T08:37:57.808Z,96.30
2022-09-30T08:39:17.731Z,97.03
2022-09-30T08:40:47.887Z,96.76
2022-09-30T08:42:36.036Z,97.34
2022-09-30T08:43:54.876Z,97.42
2022-09-30T08:45:04.095Z,97.24
2022-09-30T08:46:22.142Z,96.89
2022-09-30T08:47:38.987Z,97.63
2022-09-30T08:48:53.487Z,97.63
2022-09-30T08:50:04.786Z,97.91
2022-09-30T08:51:28.296Z,97.30
2022-09-30T08:52:48.488Z,97.23
2022-09-30T08:53:55.352Z,97.21
2022-09-30T08:54:59.371Z,97.41
2022-09-30T08:56:05.431Z,96.59
2022-09-30T08:57:11.511Z,96.65
2022-09-30T08:58:21.949Z,96.64
2022-09-30T08:59:32.706Z,97.36
2022-09-30T09:00:41.179Z,97.23
2022-09-30T09:01:48.019Z,97.56
2022-09-30T09:02:55.238Z,97.14
2022-09-30T09:04:01.259Z,96.81
2022-09-30T09:05:09.958Z,96.58
2022-09-30T09:06:26.983Z,96.81
2022-09-30T09:07:39.628Z,97.30
2022-09-30T09:10:46.796Z,97.25
2022-09-30T09:12:00.756Z,97.95
2022-09-30T09:13:15.119Z,97.47
2022-09-30T09:14:31.733Z,98.08
2022-09-30T09:15:50.681Z,97.42
2022-09-30T09:17:16.818Z,97.63
2022-09-30T09:18:44.191Z,97.93
2022-09-30T09:19:54.660Z,97.27
2022-09-30T09:21:00.248Z,97.92
2022-09-30T09:22:05.042Z,97.67
2022-09-30T09:23:11.497Z,97.17
2022-09-30T09:24:19.888Z,97.39
2022-09-30T09:25:28.593Z,96.65
2022-09-30T09:26:40.261Z,97.98
2022-09-30T09:27:53.158Z,97.24
2022-09-30T09:29:05.030Z,97.65
2022-09-30T09:30:13.650Z,97.13
2022-09-30T09:31:18.566Z,96.62
2022-09-30T09:32:23.340Z,96.32
2022-09-30T09:33:30.939Z,96.80
2022-09-30T09:34:38.236Z,97.46
2022-09-30T09:35:49.675Z,97.38
2022-09-30T09:37:06.471Z,97.77
2022-09-30T09:38:29.472Z,98.13
2022-09-30T09:39:57.021Z,97.66
2022-09-30T09:41:15.718Z,97.74
2022-09-30T09:42:31.681Z,97.21
2022-09-30T09:43:50.004Z,97.34
2022-09-30T09:45:00.305Z,97.25
2022-09-30T09:46:13.981Z,97.41
2022-09-30T09:47:20.001Z,97.41
2022-09-30T09:48:35.783Z,96.60
2022-09-30T09:49:42.252Z,96.33
2022-09-30T09:50:58.063Z,96.78
2022-09-30T09:52:47.429Z,96.83
2022-09-30T09:53:55.639Z,96.56
2022-09-30T09:55:23.836Z,96.35
2022-09-30T09:57:37.704Z,96.07
2022-09-30T09:59:06.378Z,95.96
2022-09-30T10:00:30.091Z,96.24
2022-09-30T10:02:13.716Z,96.16
2022-09-30T10:03:20.817Z,96.93
2022-09-30T10:04:27.719Z,96.49
2022-09-30T10:05:40.143Z,96.75
2022-09-30T10:06:47.309Z,96.76
2022-09-30T10:07:51.080Z,96.49
2022-09-30T10:08:57.180Z,95.94
2022-09-30T10:10:10.269Z,96.10
2022-09-30T10:11:22.296Z,95.55
2022-09-30T10:12:30.259Z,96.11
2022-09-30T10:13:43.980Z,95.96
2022-09-30T10:15:45.462Z,95.62
2022-09-30T10:16:51.132Z,95.68
2022-09-30T10:18:13.084Z,96.08
2022-09-30T10:19:22.709Z,96.01
2022-09-30T10:20:32.795Z,96.05
2022-09-30T10:23:45.509Z,96.54
2022-09-30T10:24:49.618Z,96.64
2022-09-30T10:26:00.818Z,96.30
2022-09-30T10:27:05.114Z,96.64
2022-09-30T10:28:24.299Z,96.06
2022-09-30T10:30:00.417Z,95.76
2022-09-30T10:31:19.714Z,95.20
2022-09-30T10:32:25.902Z,95.70
2022-09-30T10:33:36.778Z,95.98
2022-09-30T10:34:43.241Z,95.72
2022-09-30T10:36:24.222Z,95.93
2022-09-30T10:37:28.247Z,95.48
2022-09-30T10:38:36.101Z,95.77
2022-09-30T10:39:41.440Z,96.13
2022-09-30T10:40:49.878Z,94.84
2022-09-30T10:42:05.318Z,95.92
2022-09-30T10:43:20.223Z,96.00
2022-09-30T10:44:25.726Z,96.10
2022-09-30T10:45:37.054Z,95.58
2022-09-30T10:46:43.669Z,96.50
2022-09-30T10:48:00.580Z,96.35
2022-09-30T10:49:12.442Z,96.92
2022-09-30T10:50:17.633Z,96.38
2022-09-30T10:51:29.274Z,96.63
2022-09-30T10:52:34.521Z,96.61
2022-09-30T10:53:44.670Z,96.12
2022-09-30T10:54:56.915Z,96.93
2022-09-30T10:57:44.844Z,96.37
2022-09-30T10:58:50.444Z,96.74
2022-09-30T11:00:01.050Z,97.26
2022-09-30T11:01:24.450Z,96.76
2022-09-30T11:02:34.045Z,97.22
2022-09-30T11:03:44.913Z,97.62
2022-09-30T11:04:54.076Z,97.15
2022-09-30T11:06:01.969Z,96.96
2022-09-30T11:07:15.911Z,96.84
2022-09-30T11:08:23.485Z,95.86
2022-09-30T11:09:35.448Z,96.34
2022-09-30T11:10:50.474Z,95.94
2022-09-30T11:11:57.010Z,96.55
2022-09-30T11:13:13.309Z,96.13
2022-09-30T11:14:30.802Z,96.51
2022-09-30T11:15:42.728Z,96.11
2022-09-30T11:16:53.135Z,96.10
2022-09-30T11:18:01.422Z,96.31
2022-09-30T11:19:09.680Z,96.90
2022-09-30T11:20:23.195Z,96.66
2022-09-30T11:21:34.077Z,96.22
2022-09-30T11:22:44.495Z,96.07
2022-09-30T11:23:51.484Z,96.53
2022-09-30T11:24:55.517Z,95.72
2022-09-30T11:26:06.026Z,95.70
2022-09-30T11:27:15.692Z,96.16
2022-09-30T11:28:42.570Z,95.73
2022-09-30T11:29:59.054Z,96.52
2022-09-30T11:31:10.078Z,96.42
2022-09-30T11:32:23.961Z,96.59
2022-09-30T11:33:39.769Z,96.08
2022-09-30T11:34:51.527Z,95.91
2022-09-30T11:36:03.507Z,96.32
2022-09-30T11:37:12.400Z,96.17
2022-09-30T11:38:33.738Z,96.17
2022-09-30T11:40:01.594Z,96.06
2022-09-30T11:41:11.144Z,95.75
2022-09-30T11:42:20.524Z,95.16
2022-09-30T11:43:32.191Z,95.90
2022-09-30T11:44:37.222Z,95.71
2022-09-30T11:45:55.756Z,95.80
2022-09-30T11:47:26.672Z,95.37
2022-09-30T11:48:40.070Z,95.38
2022-09-30T11:49:55.728Z,95.46
2022-09-30T11:51:08.146Z,95.64
2022-09-30T11:52:19.838Z,94.82
2022-09-30T11:53:30.678Z,94.98
2022-09-30T11:54:48.528Z,95.13
2022-09-30T11:56:04.675Z,94.75
2022-09-30T11:57:14.680Z,95.04
2022-09-30T11:58:40.340Z,95.33
2022-09-30T11:59:48.288Z,94.74
2022-09-30T12:00:54.573Z,95.13
2022-09-30T12:02:01.591Z,95.07
2022-09-30T12:03:10.245Z,95.05
2022-09-30T12:04:17.622Z,95.23
2022-09-30T12:05:25.035Z,95.53
2022-09-30T12:06:35.413Z,95.16
2022-09-30T12:07:43.544Z,95.29
2022-09-30T12:08:50.695Z,95.65
2022-09-30T12:09:58.043Z,95.37
2022-09-30T12:11:03.554Z,95.68
2022-09-30T12:12:15.991Z,94.80
2022-09-30T12:13:23.411Z,95.05
2022-09-30T12:14:33.409Z,95.09
2022-09-30T12:15:37.617Z,94.78
2022-09-30T12:16:42.773Z,95.09
2022-09-30T12:17:51.060Z,94.77
2022-09-30T12:19:02.647Z,94.92
2022-09-30T12:20:10.823Z,94.60
2022-09-30T12:21:22.282Z,94.32
2022-09-30T12:22:31.686Z,94.11
2022-09-30T12:23:42.736Z,94.32
2022-09-30T12:24:46.397Z,94.83
2022-09-30T12:25:54.463Z,94.47
2022-09-30T12:27:00.173Z,94.19
2022-09-30T12:28:27.745Z,94.24
2022-09-30T12:29:53.597Z,94.15
2022-09-30T12:31:01.918Z,93.75
2022-09-30T12:32:21.872Z,93.94
2022-09-30T12:33:48.587Z,94.31
2022-09-30T12:35:04.033Z,94.11
2022-09-30T12:36:49.378Z,94.18
2022-09-30T12:38:06.752Z,94.10
2022-09-30T12:39:33.497Z,95.11
2022-09-30T12:40:52.989Z,94.75
2022-09-30T12:42:08.586Z,95.41
2022-09-30T12:43:27.968Z,95.45
2022-09-30T12:45:04.846Z,95.76
2022-09-30T12:46:17.939Z,95.42
2022-09-30T12:47:30.882Z,95.47
2022-09-30T12:48:38.084Z,95.64
2022-09-30T12:49:43.625Z,95.69
2022-09-30T12:50:48.998Z,95.72
2022-09-30T12:51:57.470Z,95.39
2022-09-30T12:53:12.229Z,95.04
2022-09-30T12:54:19.149Z,94.71
2022-09-30T12:55:28.283Z,94.78
2022-09-30T12:56:32.805Z,94.66
2022-09-30T12:57:40.769Z,95.01
2022-09-30T12:58:46.808Z,95.09
2022-09-30T12:59:53.113Z,94.96
2022-09-30T13:01:03.718Z,95.09
2022-09-30T13:02:08.860Z,95.67
2022-09-30T13:03:19.176Z,95.64
2022-09-30T13:04:34.707Z,95.93
2022-09-30T13:05:53.725Z,95.99
2022-09-30T13:07:12.340Z,96.09
2022-09-30T13:08:47.609Z,95.99
2022-09-30T13:10:00.910Z,95.21
2022-09-30T13:11:06.548Z,95.49
2022-09-30T13:12:18.990Z,95.50
2022-09-30T13:13:24.193Z,95.05
2022-09-30T13:14:34.593Z,95.41
2022-09-30T13:15:42.210Z,95.43
2022-09-30T13:17:19.655Z,95.48
2022-09-30T13:19:01.193Z,95.32
2022-09-30T13:20:53.352Z,95.10
2022-09-30T13:22:43.526Z,94.62
2022-09-30T13:23:50.219Z,94.94
2022-09-30T13:25:16.873Z,95.30
2022-09-30T13:26:48.872Z,95.74
2022-09-30T13:27:55.674Z,95.50
2022-09-30T13:29:32.072Z,95.99
2022-09-30T13:30:41.787Z,96.06
2022-09-30T13:32:03.682Z,95.82
2022-09-30T13:33:46.402Z,96.31
2022-09-30T13:34:55.728Z,96.10
2022-09-30T13:36:11.869Z,96.04
2022-09-30T13:37:37.346Z,96.37
2022-09-30T13:38:40.846Z,96.26
2022-09-30T13:39:49.509Z,96.13
2022-09-30T13:41:03.801Z,96.57
2022-09-30T13:42:14.532Z,96.25
2022-09-30T13:43:21.476Z,96.26
2022-09-30T13:44:34.611Z,96.19
2022-09-30T13:45:39.784Z,95.50
2022-09-30T13:46:49.708Z,95.36
2022-09-30T13:48:11.187Z,95.83
2022-09-30T13:49:19.211Z,95.62
2022-09-30T13:50:26.566Z,95.43
2022-09-30T13:51:33.509Z,95.14
2022-09-30T13:52:38.680Z,95.06
2022-09-30T13:53:46.449Z,94.76
2022-09-30T13:54:52.365Z,94.91
2022-09-30T13:55:57.850Z,94.59
2022-09-30T13:57:01.938Z,94.19
2022-09-30T13:58:38.267Z,94.19
2022-09-30T13:59:49.789Z,94.10
2022-09-30T14:00:56.803Z,94.62
2022-09-30T14:02:24.888Z,95.09
2022-09-30T14:03:50.410Z,94.70
2022-09-30T14:05:19.128Z,95.23
2022-09-30T14:06:29.581Z,94.98
2022-09-30T14:07:41.297Z,95.08
2022-09-30T14:09:06.163Z,95.38
2022-09-30T14:10:36.297Z,94.88
2022-09-30T14:12:15.199Z,95.07
2022-09-30T14:13:34.168Z,95.34
2022-09-30T14:15:03.405Z,95.66
2022-09-30T14:16:39.374Z,95.70
2022-09-30T14:18:05.750Z,95.24
2022-09-30T14:19:46.723Z,95.64
2022-09-30T14:21:12.822Z,96.02
2022-09-30T14:22:18.191Z,95.78
2022-09-30T14:23:22.135Z,95.54
2022-09-30T14:24:35.213Z,95.73
2022-09-30T14:25:48.592Z,95.23
2022-09-30T14:27:50.878Z,95.41
2022-09-30T14:29:01.724Z,95.24
2022-09-30T14:30:11.838Z,95.63
2022-09-30T14:31:17.007Z,95.86
2022-09-30T14:32:26.446Z,95.37
2022-09-30T14:33:31.902Z,95.60
2022-09-30T14:35:07.121Z,95.64
2022-09-30T14:36:15.257Z,95.88
2022-09-30T14:37:24.040Z,95.41
2022-09-30T14:38:30.676Z,95.23
2022-09-30T14:39:35.596Z,95.32
2022-09-30T14:40:42.777Z,95.69
2022-09-30T14:42:16.183Z,95.78
2022-09-30T14:43:24.053Z,95.59
2022-09-30T14:44:30.074Z,94.97
2022-09-30T14:45:35.353Z,95.32
2022-09-30T14:46:41.873Z,95.19
2022-09-30T14:47:47.859Z,96.06
2022-09-30T14:48:53.354Z,96.04
2022-09-30T14:49:57.872Z,96.06
2022-09-30T14:51:06.088Z,95.61
2022-09-30T14:52:59.122Z,95.50
2022-09-30T14:54:16.801Z,95.30
2022-09-30T14:55:25.895Z,95.59
2022-09-30T14:56:57.097Z,95.06
2022-09-30T14:58:29.270Z,94.84
2022-09-30T14:59:42.042Z,95.09
2022-09-30T15:00:50.169Z,95.19
2022-09-30T15:02:17.274Z,95.23
2022-09-30T15:03:21.147Z,95.02
2022-09-30T15:06:00.674Z,94.72
2022-09-30T15:08:51.464Z,94.16
2022-09-30T15:09:55.841Z,94.07
2022-09-30T15:10:59.299Z,94.58
2022-09-30T15:12:12.181Z,94.12
2022-09-30T15:13:16.184Z,93.96
2022-09-30T15:14:22.573Z,93.74
2022-09-30T15:15:38.503Z,93.72
2022-09-30T15:16:47.676Z,93.97
2022-09-30T15:18:00.079Z,93.66
2022-09-30T15:19:04.948Z,93.66
2022-09-30T15:20:26.968Z,93.62
2022-09-30T15:21:38.442Z,93.77
2022-09-30T15:22:42.423Z,94.04
2022-09-30T15:23:51.865Z,93.60
2022-09-30T15:24:55.843Z,94.17
2022-09-30T15:26:01.459Z,94.20
2022-09-30T15:27:15.366Z,94.11
2022-09-30T15:28:19.047Z,94.88
2022-09-30T15:29:23.598Z,95.04
2022-09-30T15:30:29.482Z,94.78
2022-09-30T15:31:34.406Z,95.03
2022-09-30T15:32:37.928Z,95.23
2022-09-30T15:33:42.237Z,95.21
2022-09-30T15:34:46.447Z,94.96
2022-09-30T15:35:50.781Z,95.28
2022-09-30T15:37:00.891Z,95.00
2022-09-30T15:38:10.107Z,95.09
2022-09-30T15:39:24.304Z,95.23
2022-09-30T15:40:46.342Z,95.46
2022-09-30T15:41:51.418Z,94.79
2022-09-30T15:43:01.596Z,95.27
2022-09-30T15:44:06.074Z,94.98
2022-09-30T15:45:39.794Z,94.87
2022-09-30T15:47:08.940Z,94.64
2022-09-30T15:48:35.550Z,94.48
2022-09-30T15:49:50.062Z,94.96
2022-09-30T15:50:56.225Z,94.91
2022-09-30T15:52:22.486Z,94.65
2022-09-30T15:53:29.792Z,94.64
2022-09-30T15:54:39.537Z,94.47
2022-09-30T15:55:48.512Z,95.01
2022-09-30T15:56:53.175Z,95.18
2022-09-30T15:58:01.257Z,95.00
2022-09-30T15:59:08.141Z,95.26
2022-09-30T16:00:35.673Z,95.22
2022-09-30T16:01:41.605Z,95.08
2022-09-30T16:02:45.397Z,94.37
2022-09-30T16:03:55.801Z,94.55
2022-09-30T16:05:02.538Z,94.61
2022-09-30T16:06:09.401Z,94.77
2022-09-30T16:07:18.537Z,94.56
2022-09-30T16:10:08.982Z,94.84
2022-09-30T16:11:21.020Z,95.34
2022-09-30T16:12:28.488Z,95.61
2022-09-30T16:13:35.440Z,95.94
2022-09-30T16:14:45.644Z,95.70
2022-09-30T16:15:49.171Z,96.23
2022-09-30T16:17:01.669Z,96.35
2022-09-30T16:18:05.233Z,95.93
2022-09-30T16:19:17.947Z,96.24
2022-09-30T16:20:26.943Z,96.19
2022-09-30T16:21:44.626Z,96.26
2022-09-30T16:22:55.584Z,95.83
2022-09-30T16:23:59.775Z,96.28
2022-09-30T16:25:13.724Z,95.83
2022-09-30T16:26:21.896Z,96.06
2022-09-30T16:27:30.751Z,96.63
2022-09-30T16:28:37.462Z,96.01
2022-09-30T16:29:46.165Z,96.32
2022-09-30T16:30:51.963Z,96.17
2022-09-30T16:31:57.445Z,96.37
2022-09-30T16:33:06.422Z,96.24
2022-09-30T16:34:29.374Z,96.04
2022-09-30T16:35:34.707Z,96.21
2022-09-30T16:36:38.582Z,96.26
2022-09-30T16:37:44.580Z,95.78
2022-09-30T16:38:48.563Z,96.35
2022-09-30T16:39:58.434Z,96.13
2022-09-30T16:41:07.188Z,96.15
2022-09-30T16:42:14.532Z,96.37
2022-09-30T16:43:27.383Z,95.87
2022-09-30T16:44:35.943Z,96.48
2022-09-30T16:45:54.814Z,96.02
2022-09-30T16:47:03.347Z,95.94
2022-09-30T16:48:58.347Z,95.87
2022-09-30T16:50:26.641Z,95.95
2022-09-30T16:51:57.135Z,96.15
2022-09-30T16:53:16.949Z,96.21
2022-09-30T16:54:20.947Z,96.57
2022-09-30T16:55:38.123Z,96.01
2022-09-30T16:57:12.063Z,95.68
2022-09-30T16:58:31.093Z,96.10
2022-09-30T16:59:44.833Z,96.14
2022-09-30T17:02:40.073Z,95.98
2022-09-30T17:04:21.682Z,96.73
2022-09-30T17:05:28.508Z,96.37
2022-09-30T17:06:44.541Z,96.34
2022-09-30T17:10:41.182Z,96.49
2022-09-30T17:11:48.188Z,96.74
2022-09-30T17:13:29.915Z,96.92
2022-09-30T17:15:30.848Z,96.55
2022-09-30T17:18:12.118Z,96.63
2022-09-30T17:20:00.519Z,97.39
2022-09-30T17:21:51.176Z,96.66
2022-09-30T17:25:08.106Z,96.93
2022-09-30T17:27:08.023Z,97.56
2022-09-30T17:28:48.366Z,97.04
2022-09-30T17:29:53.761Z,97.30
2022-09-30T17:31:57.003Z,97.34
2022-09-30T17:38:14.866Z,97.56
2022-09-30T17:41:08.243Z,97.82
2022-09-30T17:43:15.197Z,98.00
2022-09-30T17:48:44.310Z,98.25
2022-09-30T17:50:55.112Z,98.26
2022-09-30T17:53:21.377Z,98.31
2022-09-30T17:57:14.719Z,98.61
2022-09-30T17:58:59.917Z,97.87
2022-09-30T18:04:06.649Z,98.28
2022-09-30T18:06:17.809Z,98.33
2022-09-30T18:08:24.842Z,98.03
2022-09-30T18:10:16.437Z,98.18
2022-09-30T18:15:33.384Z,98.17
2022-09-30T18:19:58.669Z,98.33
2022-09-30T18:22:22.709Z,98.79
2022-09-30T18:24:28.686Z,98.44
2022-09-30T18:33:19.670Z,98.37
2022-09-30T18:35:34.004Z,98.31
2022-09-30T18:37:58.143Z,97.89
2022-09-30T18:39:08.567Z,98.26
2022-09-30T18:40:42.599Z,98.25
2022-09-30T18:42:33.028Z,97.93
2022-09-30T18:44:58.981Z,98.23
2022-09-30T18:46:13.174Z,98.17
2022-09-30T18:53:54.450Z,98.25
2022-09-30T18:55:36.301Z,99.17
2022-09-30T18:58:10.075Z,99.04
2022-09-30T19:01:02.758Z,98.80
2022-09-30T19:12:15.454Z,99.61
2022-09-30T19:13:55.469Z,99.78
2022-09-30T19:35:40.406Z,99.79
2022-09-30T19:41:09.226Z,100.00
2022-09-30T19:43:56.713Z,100.00
2022-09-30T19:48:23.900Z,100.00
2022-09-30T19:52:20.938Z,100.00
2022-09-30T19:54:52.192Z,99.94
2022-09-30T19:58:41.696Z,99.73
2022-09-30T20:02:31.819Z,99.57
2022-09-30T20:03:48.077Z,100.00
2022-09-30T20:05:41.244Z,99.98
2022-09-30T20:07:36.083Z,99.45
2022-09-30T20:09:12.836Z,99.79
2022-09-30T20:14:21.021Z,100.00
2022-09-30T20:21:23.842Z,100.00
2022-09-30T20:23:11.325Z,100.00
2022-09-30T20:27:25.296Z,100.00
2022-09-30T20:32:03.948Z,99.70
2022-09-30T20:36:02.598Z,99.80
2022-09-30T20:37:26.130Z,100.00
2022-09-30T20:40:44.301Z,99.93
2022-09-30T20:41:59.127Z,100.00
2022-09-30T20:43:14.608Z,100.00
2022-09-30T20:44:25.975Z,100.00
2022-09-30T20:45:35.223Z,100.00
2022-09-30T20:46:58.752Z,100.00
2022-09-30T20:51:44.469Z,100.00
2022-09-30T20:52:54.698Z,100.00
2022-09-30T20:54:14.942Z,100.00
2022-09-30T20:55:24.808Z,100.00
2022-09-30T20:57:18.115Z,100.00
2022-09-30T20:58:48.635Z,100.00
2022-09-30T21:00:00.468Z,100.00
2022-09-30T21:01:10.326Z,100.00
2022-09-30T21:03:09.799Z,100.00
2022-09-30T21:06:33.855Z,100.00
2022-09-30T21:07:47.947Z,100.00
2022-09-30T21:09:06.022Z,100.00
2022-09-30T21:10:10.807Z,100.00
2022-09-30T21:11:21.201Z,100.00
2022-09-30T21:12:38.662Z,100.00
2022-09-30T21:13:48.475Z,99.61
2022-09-30T21:15:08.826Z,99.84
2022-09-30T21:19:32.097Z,100.00
2022-09-30T21:21:35.563Z,100.00
2022-09-30T21:23:07.851Z,100.00
2022-09-30T21:24:48.410Z,100.00
2022-09-30T21:26:08.134Z,100.00
2022-09-30T21:30:33.065Z,100.00
2022-09-30T21:32:51.624Z,100.00
2022-09-30T21:36:28.061Z,100.00
2022-09-30T21:37:42.074Z,100.00
2022-09-30T21:38:55.816Z,100.00
2022-09-30T21:40:03.574Z,100.00
2022-09-30T21:41:24.112Z,100.00
2022-09-30T21:43:10.089Z,100.00
2022-09-30T21:44:22.107Z,100.00
2022-09-30T21:46:55.887Z,100.00
2022-09-30T21:48:24.312Z,100.00
2022-09-30T21:50:48.505Z,100.00
2022-09-30T21:54:29.646Z,100.00
2022-09-30T21:56:01.208Z,100.00
2022-09-30T21:57:11.300Z,100.00
2022-09-30T21:58:26.432Z,100.00
2022-09-30T22:00:13.799Z,100.00
2022-09-30T22:01:51.149Z,100.00
2022-09-30T22:04:46.914Z,100.00
2022-09-30T22:06:31.996Z,100.00
2022-09-30T22:08:03.063Z,100.00
2022-09-30T22:09:22.812Z,100.00
2022-09-30T22:14:10.512Z,100.00
2022-09-30T22:15:36.082Z,100.00
2022-09-30T22:17:10.835Z,100.00
2022-09-30T22:18:18.249Z,100.00
2022-09-30T22:19:30.346Z,100.00
2022-09-30T22:21:28.257Z,100.00
2022-09-30T22:24:18.012Z,100.00
2022-09-30T22:25:35.867Z,100.00
2022-09-30T22:27:15.350Z,100.00
2022-09-30T22:28:35.177Z,100.00
2022-09-30T22:29:44.792Z,100.00
2022-09-30T22:30:48.755Z,100.00
2022-09-30T22:31:56.828Z,100.00
2022-09-30T22:33:48.814Z,100.00
2022-09-30T22:35:23.985Z,100.00
2022-09-30T22:37:03.726Z,100.00
2022-09-30T22:38:18.476Z,100.00
2022-09-30T22:40:00.740Z,100.00
2022-09-30T22:41:12.231Z,100.00
2022-09-30T22:42:31.355Z,100.00
2022-09-30T22:43:47.450Z,100.00
2022-09-30T22:45:09.896Z,100.00
2022-09-30T22:46:22.030Z,100.00
2022-09-30T22:47:59.463Z,100.00
2022-09-30T22:49:12.324Z,100.00
2022-09-30T22:50:29.272Z,100.00